Forside
METAR-TAF:

METAR-TAF

Lufthavne :

Porterville Municipal Airport

Porterville, Californien, USA

Breddekreds: 36-02N, længdekreds: 119-04W, højde: 135 m

Aktuelle vejr

Denne rapport blev lavet for 48 minutter siden, kl. 06:56 UTC
Vind 7 kt fra østsydøst
Temperatur 11°C
Fugtighed 71%
Tryk 1018 hPa
Sigt: 16.1 km
skyfri

METAR: KPTV 290656Z AUTO 12007KT 10SM CLR 11/06 A3007 RMK AO2 SLP181 T01110061

Tid: 23:44 (07:44 UTC)


TAF: fraværende

Vejrobservationer og prognoser fra mere end 4000 lufthavne (METAR og TAF).

De gule og røde prikker repræsenterer de meteorologiske stationer.

Flyt musen over at se navnet på stationen.

Så klik over at se vejr observationer og prognoser.

At skifte det kort: Klik på de grønne knapper med et sort kors for at zoome ind; på den grønne knap med en bindestreg for at zoome ud; eller på de grønne pile for tilstødende kort.


METAR-TAF: